Time;durP1;ratioP1;P1;durP2;ratioP2;P2;SDS_P1;SDS_P2;PMS_P1;PMS_P2;Temp;Humidity;BMP_temperature;BMP_pressure;BME280_temperature;BME280_humidity;BME280_pressure;Samples;Min_cycle;Max_cycle;Signal;HPM_P1;HPM_P2
2021/07/29 05:00:49;;;;;;;;;;;;;;;31.21;49.17;99638.06;1825502;77;20178;-67
2021/07/29 05:03:15;;;;;;;;;;;;;;;31.32;49.01;99637.28;1780888;79;20397;-66
2021/07/29 05:05:42;;;;;;;;;;;;;;;31.55;48.45;99640.55;1780244;78;21202;-67
2021/07/29 05:08:11;;;;;;;;;;;;;;;31.81;47.80;99633.39;1769629;80;20184;-70
2021/07/29 05:10:37;;;;;;;;;;;;;;;32.05;47.01;99630.97;1800549;78;20122;-72
2021/07/29 05:13:04;;;;;;;;;;;;;;;32.29;46.54;99637.72;1805435;78;20132;-72
2021/07/29 05:15:31;;;;;;;;;;;;;;;32.49;46.03;99645.69;1791277;78;20082;-69
2021/07/29 05:17:58;;;;;;;;;;;;;;;32.70;45.60;99638.02;1797331;78;21084;-74
2021/07/29 05:20:25;;;;;;;;;;;;;;;32.90;45.30;99628.98;1793979;78;20456;-70
2021/07/29 05:22:52;;;;;;;;;;;;;;;33.12;44.83;99633.17;1798316;78;20078;-72
2021/07/29 05:25:24;;;;;;;;;;;;;;;33.32;44.04;99630.84;1795717;78;20078;-77
2021/07/29 05:27:52;;;;;;;;;;;;;;;33.51;43.86;99629.27;1791568;78;20426;-74
2021/07/29 05:30:18;;;;;;;;;;;;;;;33.72;43.26;99623.92;1799152;78;21123;-72
2021/07/29 05:32:46;;;;;;;;;;;;;;;33.91;42.83;99627.22;1798389;78;20432;-74
2021/07/29 05:35:13;;;;;;;;;;;;;;;34.04;42.47;99624.14;1798033;78;20141;-70
2021/07/29 05:37:40;;;;;;;;;;;;;;;34.21;42.10;99627.34;1794053;80;20117;-73
2021/07/29 05:40:07;;;;;;;;;;;;;;;34.40;41.52;99627.33;1797275;78;20122;-66
2021/07/29 05:42:36;;;;;;;;;;;;;;;34.50;41.13;99628.00;1793978;80;20491;-67
2021/07/29 05:45:04;;;;;;;;;;;;;;;34.61;40.65;99630.58;1795455;78;20094;-78
2021/07/29 05:47:43;;;;;;;;;;;;;;;34.82;40.30;99628.11;1778048;78;20147;-80
2021/07/29 05:50:10;;;;;;;;;;;;;;;35.03;40.19;99628.08;1812115;78;20140;-76
2021/07/29 05:52:37;;;;;;;;;;;;;;;35.23;39.74;99619.31;1792745;78;20181;-62
2021/07/29 05:55:04;;;;;;;;;;;;;;;35.39;39.24;99614.88;1794786;78;21807;-67
2021/07/29 05:57:34;;;;;;;;;;;;;;;35.46;38.91;99618.20;1794038;80;20183;-74
2021/07/29 06:00:01;;;;;;;;;;;;;;;35.52;38.85;99617.70;1810112;78;20079;-76
2021/07/29 06:02:28;;;;;;;;;;;;;;;35.65;38.69;99622.11;1789096;78;20110;-74
2021/07/29 06:04:55;;;;;;;;;;;;;;;35.83;38.69;99622.28;1784035;79;20120;-68
2021/07/29 06:07:21;;;;;;;;;;;;;;;36.01;38.12;99616.95;1784837;80;21002;-66
2021/07/29 06:09:48;;;;;;;;;;;;;;;36.14;37.83;99627.86;1773099;79;20093;-65
2021/07/29 06:12:15;;;;;;;;;;;;;;;36.20;37.91;99620.85;1769463;79;20130;-79
2021/07/29 06:14:42;;;;;;;;;;;;;;;36.25;37.30;99624.12;1774113;80;20457;-73
2021/07/29 06:17:09;;;;;;;;;;;;;;;36.28;37.00;99622.28;1794932;79;20462;-69
2021/07/29 06:19:39;;;;;;;;;;;;;;;36.33;36.72;99623.66;1779385;79;21030;-67
2021/07/29 06:22:04;;;;;;;;;;;;;;;36.43;36.43;99620.97;1780187;80;20288;-66
2021/07/29 06:24:31;;;;;;;;;;;;;;;36.52;36.64;99621.27;1776746;80;20412;-65
2021/07/29 06:26:59;;;;;;;;;;;;;;;36.65;36.32;99614.81;1783904;78;20154;-66
2021/07/29 06:29:26;;;;;;;;;;;;;;;36.77;36.19;99611.90;1778202;79;20466;-67
2021/07/29 06:31:53;;;;;;;;;;;;;;;36.94;36.13;99611.64;1790202;79;21110;-67
2021/07/29 06:34:19;;;;;;;;;;;;;;;37.08;35.56;99614.66;1781514;80;20159;-66
2021/07/29 06:36:46;;;;;;;;;;;;;;;37.05;35.88;99608.67;1778602;80;20438;-68
2021/07/29 06:39:13;;;;;;;;;;;;;;;37.03;35.93;99615.45;1780732;78;20114;-68
2021/07/29 06:41:40;;;;;;;;;;;;;;;37.08;36.31;99611.39;1780614;79;20086;-74
2021/07/29 06:44:08;;;;;;;;;;;;;;;37.20;35.79;99609.23;1782934;79;21102;-74
2021/07/29 06:46:36;;;;;;;;;;;;;;;37.31;35.53;99605.45;1781820;79;20094;-74
2021/07/29 06:49:07;;;;;;;;;;;;;;;37.35;35.27;99598.93;1778625;79;20115;-73
2021/07/29 06:51:36;;;;;;;;;;;;;;;37.34;35.33;99593.23;1779459;79;20291;-69
2021/07/29 06:54:06;;;;;;;;;;;;;;;37.25;35.14;99601.09;1770041;79;20156;-75
2021/07/29 06:56:33;;;;;;;;;;;;;;;37.16;35.10;99599.19;1798078;79;21088;-75
2021/07/29 06:59:00;;;;;;;;;;;;;;;36.93;35.50;99598.61;1793057;79;20118;-72
2021/07/29 07:01:28;;;;;;;;;;;;;;;36.75;35.95;99597.78;1775941;79;20284;-75
2021/07/29 07:03:54;;;;;;;;;;;;;;;36.68;36.42;99602.07;1794086;79;20496;-81
2021/07/29 07:06:22;;;;;;;;;;;;;;;36.77;36.20;99594.80;1793028;79;20143;-77
2021/07/29 07:08:49;;;;;;;;;;;;;;;36.79;36.16;99600.20;1775160;79;21027;-76
2021/07/29 07:11:18;;;;;;;;;;;;;;;36.86;36.03;99595.34;1781444;80;21435;-77
2021/07/29 07:13:47;;;;;;;;;;;;;;;37.03;34.84;99599.98;1780136;79;20162;-72
2021/07/29 07:16:15;;;;;;;;;;;;;;;37.18;34.17;99601.09;1778196;79;20722;-65
2021/07/29 07:18:43;;;;;;;;;;;;;;;37.35;34.16;99594.86;1782810;79;20561;-70
2021/07/29 07:21:11;;;;;;;;;;;;;;;37.45;34.04;99600.83;1779753;80;21029;-67
2021/07/29 07:23:38;;;;;;;;;;;;;;;37.54;33.86;99598.66;1780890;80;20090;-78
2021/07/29 07:26:05;;;;;;;;;;;;;;;37.62;33.09;99596.72;1784804;80;20083;-68
2021/07/29 07:28:33;;;;;;;;;;;;;;;37.68;32.44;99603.80;1794342;79;20454;-77
2021/07/29 07:31:00;;;;;;;;;;;;;;;37.77;32.50;99598.63;1799117;79;20187;-75
2021/07/29 07:33:27;;;;;;;;;;;;;;;37.81;32.28;99594.83;1801372;79;20979;-73
2021/07/29 07:35:56;;;;;;;;;;;;;;;37.93;31.76;99600.78;1754651;79;20503;-71
2021/07/29 07:38:23;;;;;;;;;;;;;;;38.01;31.92;99598.83;1795435;79;20180;-74
2021/07/29 07:40:52;;;;;;;;;;;;;;;38.08;32.68;99604.79;1799295;78;20115;-70
2021/07/29 07:43:22;;;;;;;;;;;;;;;38.13;31.86;99602.09;1781257;80;20165;-71
2021/07/29 07:45:51;;;;;;;;;;;;;;;38.19;31.19;99596.09;1776817;80;21104;-78
2021/07/29 07:48:22;;;;;;;;;;;;;;;38.19;30.88;99592.82;1782801;79;20150;-66
2021/07/29 07:50:52;;;;;;;;;;;;;;;38.24;30.76;99599.60;1795771;79;20132;-71
2021/07/29 07:53:25;;;;;;;;;;;;;;;38.21;31.19;99597.44;1788779;79;20140;-75
2021/07/29 07:55:56;;;;;;;;;;;;;;;38.25;31.57;99594.98;1781120;79;20107;-78
2021/07/29 07:58:25;;;;;;;;;;;;;;;38.31;31.75;99592.51;1786163;79;21065;-67
2021/07/29 08:00:56;;;;;;;;;;;;;;;38.29;32.02;99595.50;1766623;80;20133;-78
2021/07/29 08:03:25;;;;;;;;;;;;;;;38.20;33.01;99601.25;1768375;79;20447;-69
2021/07/29 08:05:53;;;;;;;;;;;;;;;38.15;32.58;99595.83;1775261;80;20093;-69
2021/07/29 08:08:20;;;;;;;;;;;;;;;38.12;31.80;99597.73;1791366;79;20182;-65
2021/07/29 08:10:50;;;;;;;;;;;;;;;38.10;31.50;99593.64;1798731;79;21328;-76
2021/07/29 08:13:20;;;;;;;;;;;;;;;38.11;31.81;99595.27;1788044;79;20173;-85
2021/07/29 08:15:53;;;;;;;;;;;;;;;38.05;31.83;99592.56;1799036;79;20120;-77
2021/07/29 08:18:18;;;;;;;;;;;;;;;37.95;31.68;99594.52;1783327;79;20534;-78
2021/07/29 08:20:48;;;;;;;;;;;;;;;37.81;30.74;99587.48;1785943;79;20393;-78
2021/07/29 08:23:15;;;;;;;;;;;;;;;37.83;30.66;99587.20;1798469;79;21183;-67
2021/07/29 08:25:42;;;;;;;;;;;;;;;37.88;30.59;99585.84;1800900;79;20079;-74
2021/07/29 08:28:10;;;;;;;;;;;;;;;37.93;30.60;99584.47;1800777;79;20120;-67
2021/07/29 08:30:37;;;;;;;;;;;;;;;37.96;30.75;99582.02;1810155;78;20110;-75
2021/07/29 08:33:09;;;;;;;;;;;;;;;37.93;30.76;99585.28;1803658;78;20129;-74
2021/07/29 08:35:37;;;;;;;;;;;;;;;37.63;30.54;99574.44;1800444;79;22798;-69
2021/07/29 08:38:04;;;;;;;;;;;;;;;37.36;31.37;99569.33;1799302;79;20157;-64
2021/07/29 08:40:33;;;;;;;;;;;;;;;37.28;31.88;99567.16;1787125;79;20131;-69
2021/07/29 08:43:01;;;;;;;;;;;;;;;37.26;31.88;99562.54;1800195;79;20142;-76
2021/07/29 08:45:29;;;;;;;;;;;;;;;37.14;32.00;99568.23;1740179;80;20084;-69
2021/07/29 08:47:55;;;;;;;;;;;;;;;36.95;32.24;99566.59;1787890;79;21895;-71
2021/07/29 08:50:23;;;;;;;;;;;;;;;36.77;32.08;99563.05;1789411;79;20129;-72
2021/07/29 08:52:50;;;;;;;;;;;;;;;36.63;32.06;99560.55;1784819;80;20308;-74
2021/07/29 08:55:17;;;;;;;;;;;;;;;36.53;32.96;99557.80;1786134;78;20086;-75
2021/07/29 08:57:44;;;;;;;;;;;;;;;36.53;32.95;99549.13;1786406;79;20090;-73
2021/07/29 09:00:12;;;;;;;;;;;;;;;36.53;33.14;99551.02;1785084;78;21095;-74
2021/07/29 09:02:40;;;;;;;;;;;;;;;36.53;32.85;99548.31;1795755;79;20155;-73
2021/07/29 09:05:16;;;;;;;;;;;;;;;36.49;32.68;99541.80;1792312;79;20085;-71
2021/07/29 09:07:45;;;;;;;;;;;;;;;36.48;32.32;99545.59;1791470;80;21046;-66
2021/07/29 09:10:20;;;;;;;;;;;;;;;36.31;31.91;99538.52;1790664;79;20102;-70
2021/07/29 09:12:47;;;;;;;;;;;;;;;36.12;31.70;99545.45;1795281;79;21131;-78
2021/07/29 09:15:20;;;;;;;;;;;;;;;35.85;32.47;99533.95;1768042;80;20368;-72
2021/07/29 09:17:48;;;;;;;;;;;;;;;35.67;32.56;99540.05;1790848;80;20189;-73
2021/07/29 09:20:21;;;;;;;;;;;;;;;35.52;33.18;99535.11;1794238;79;20436;-76
2021/07/29 09:22:50;;;;;;;;;;;;;;;35.46;33.06;99531.55;1795174;79;20161;-66
2021/07/29 09:25:17;;;;;;;;;;;;;;;35.35;33.41;99532.01;1798158;79;21211;-73
2021/07/29 09:27:46;;;;;;;;;;;;;;;35.26;32.85;99529.47;1794510;79;20140;-71
2021/07/29 09:30:19;;;;;;;;;;;;;;;35.10;33.19;99527.74;1792485;80;20400;-68
2021/07/29 09:33:05;;;;;;;;;;;;;;;34.99;33.84;99526.84;1794308;78;20091;-68
2021/07/29 09:35:34;;;;;;;;;;;;;;;34.91;33.55;99525.13;1788963;80;20413;-67
2021/07/29 09:38:01;;;;;;;;;;;;;;;34.75;33.36;99520.92;1794998;78;21872;-67
2021/07/29 09:40:45;;;;;;;;;;;;;;;34.54;33.35;99521.79;1793085;79;20197;-75
2021/07/29 09:43:14;;;;;;;;;;;;;;;34.32;33.92;99528.60;1789522;80;20094;-70
2021/07/29 09:45:44;;;;;;;;;;;;;;;34.14;34.16;99528.88;1793032;80;20151;-72
2021/07/29 09:48:11;;;;;;;;;;;;;;;34.02;34.40;99525.48;1796098;79;20133;-70
2021/07/29 09:50:38;;;;;;;;;;;;;;;33.92;34.83;99526.73;1803911;79;21081;-71
2021/07/29 09:53:05;;;;;;;;;;;;;;;33.87;34.84;99521.27;1791018;80;20126;-74
2021/07/29 09:55:32;;;;;;;;;;;;;;;33.85;35.04;99522.86;1792990;80;20094;-67
2021/07/29 09:58:02;;;;;;;;;;;;;;;33.84;34.99;99520.41;1792497;79;20142;-67
2021/07/29 10:00:29;;;;;;;;;;;;;;;33.82;34.77;99518.48;1789159;79;20114;-70
2021/07/29 10:02:56;;;;;;;;;;;;;;;33.74;34.90;99512.42;1791296;79;21028;-65
2021/07/29 10:05:32;;;;;;;;;;;;;;;33.70;35.19;99520.73;1789047;80;20467;-65
2021/07/29 10:08:01;;;;;;;;;;;;;;;33.67;35.07;99513.66;1788280;80;20176;-65
2021/07/29 10:10:30;;;;;;;;;;;;;;;33.67;34.78;99511.78;1789857;80;20402;-66
2021/07/29 10:12:56;;;;;;;;;;;;;;;33.62;34.82;99514.41;1789570;80;20118;-66
2021/07/29 10:15:42;;;;;;;;;;;;;;;33.53;34.47;99514.57;1790597;80;20078;-65
2021/07/29 10:18:23;;;;;;;;;;;;;;;33.39;35.08;99510.58;1790641;80;20137;-67
2021/07/29 10:20:45;;;;;;;;;;;;;;;33.31;35.72;99503.71;1786631;79;20148;-65
2021/07/29 10:23:18;;;;;;;;;;;;;;;33.31;35.94;99506.94;1789985;80;20137;-65
2021/07/29 10:25:57;;;;;;;;;;;;;;;33.29;36.02;99505.84;1789903;80;20122;-65
2021/07/29 10:28:28;;;;;;;;;;;;;;;33.27;35.29;99501.22;1789146;80;20995;-65
2021/07/29 10:30:56;;;;;;;;;;;;;;;33.19;35.83;99497.55;1789636;79;20114;-66
2021/07/29 10:33:28;;;;;;;;;;;;;;;33.16;35.81;99494.55;1790235;80;20095;-66
2021/07/29 10:35:57;;;;;;;;;;;;;;;33.09;35.35;99489.32;1790676;80;20434;-66
2021/07/29 10:38:48;;;;;;;;;;;;;;;32.96;35.29;99485.59;1789555;80;20129;-66
2021/07/29 10:41:36;;;;;;;;;;;;;;;32.79;36.15;99478.30;1789543;80;21101;-66
2021/07/29 10:44:05;;;;;;;;;;;;;;;32.69;36.18;99487.56;1790571;80;20114;-66
2021/07/29 10:46:56;;;;;;;;;;;;;;;32.64;35.98;99480.73;1790308;80;20083;-66
2021/07/29 10:49:52;;;;;;;;;;;;;;;32.62;35.55;99482.03;1788610;80;20130;-66
2021/07/29 10:52:19;;;;;;;;;;;;;;;32.57;35.50;99480.59;1790213;80;20094;-66
2021/07/29 10:54:46;;;;;;;;;;;;;;;32.49;35.62;99475.87;1790393;80;21121;-66
2021/07/29 10:57:13;;;;;;;;;;;;;;;32.43;36.57;99473.33;1789105;80;20118;-65
2021/07/29 10:59:40;;;;;;;;;;;;;;;32.39;35.66;99477.03;1788831;80;20118;-66
2021/07/29 11:02:14;;;;;;;;;;;;;;;32.35;34.88;99469.17;1784737;79;20466;-66
2021/07/29 11:04:56;;;;;;;;;;;;;;;32.32;35.10;99464.80;1769449;79;20347;-66
2021/07/29 11:07:23;;;;;;;;;;;;;;;32.33;35.42;99466.43;1771185;78;21199;-66
2021/07/29 11:10:02;;;;;;;;;;;;;;;32.42;35.64;99470.34;1777845;79;20138;-66
2021/07/29 11:12:29;;;;;;;;;;;;;;;32.52;35.45;99467.02;1780460;78;20122;-67
2021/07/29 11:14:58;;;;;;;;;;;;;;;32.54;35.36;99464.91;1777000;79;20128;-67
2021/07/29 11:17:25;;;;;;;;;;;;;;;32.51;35.58;99459.47;1785093;79;20206;-70
2021/07/29 11:19:54;;;;;;;;;;;;;;;32.44;35.98;99458.80;1787908;79;20141;-67
2021/07/29 11:22:21;;;;;;;;;;;;;;;32.42;36.51;99456.87;1792567;79;20479;-66
2021/07/29 11:24:50;;;;;;;;;;;;;;;32.42;36.52;99451.48;1781598;79;20236;-66
2021/07/29 11:27:34;;;;;;;;;;;;;;;32.43;36.52;99451.77;1785069;79;20154;-69
2021/07/29 11:30:01;;;;;;;;;;;;;;;32.44;37.07;99448.02;1779992;79;20141;-67
2021/07/29 11:32:42;;;;;;;;;;;;;;;32.47;36.34;99443.48;1774671;79;21089;-77
2021/07/29 11:35:14;;;;;;;;;;;;;;;32.49;36.53;99438.67;1774433;79;20497;-70
2021/07/29 11:37:47;;;;;;;;;;;;;;;32.47;35.92;99437.56;1785402;79;20118;-73
2021/07/29 11:40:20;;;;;;;;;;;;;;;32.35;36.21;99423.36;1782142;79;20187;-77
2021/07/29 11:42:49;;;;;;;;;;;;;;;32.32;36.88;99419.80;1785601;79;20074;-72
2021/07/29 11:45:27;;;;;;;;;;;;;;;32.37;37.23;99415.86;1797154;79;21165;-77
2021/07/29 11:47:54;;;;;;;;;;;;;;;32.42;37.07;99415.09;1774657;79;20138;-67
2021/07/29 11:50:38;;;;;;;;;;;;;;;32.44;37.30;99415.67;1781726;79;20185;-73
2021/07/29 11:53:05;;;;;;;;;;;;;;;32.45;37.30;99409.22;1776397;79;20083;-74
2021/07/29 11:55:32;;;;;;;;;;;;;;;32.44;37.85;99409.75;1778610;79;20077;-75
2021/07/29 11:58:13;;;;;;;;;;;;;;;32.44;38.15;99396.28;1771681;79;21153;-64
2021/07/29 12:00:42;;;;;;;;;;;;;;;32.50;38.02;99397.19;1770992;79;20516;-70
2021/07/29 12:03:11;;;;;;;;;;;;;;;32.53;37.62;99386.45;1775627;78;20648;-65
2021/07/29 12:05:40;;;;;;;;;;;;;;;32.46;37.50;99385.25;1778862;78;20141;-66
2021/07/29 12:08:08;;;;;;;;;;;;;;;32.39;37.44;99376.54;1778918;78;20107;-66
2021/07/29 12:10:37;;;;;;;;;;;;;;;32.37;37.58;99374.61;1779766;78;21134;-74
2021/07/29 12:13:04;;;;;;;;;;;;;;;32.33;37.41;99360.81;1776849;78;20240;-68
2021/07/29 12:15:31;;;;;;;;;;;;;;;32.32;37.51;99365.09;1779143;78;20131;-68
2021/07/29 12:18:17;;;;;;;;;;;;;;;32.31;36.92;99354.03;1775365;78;20168;-70
2021/07/29 12:20:46;;;;;;;;;;;;;;;32.28;36.00;99367.45;1781958;78;20391;-74
2021/07/29 12:23:13;;;;;;;;;;;;;;;32.26;35.98;99359.33;1778746;78;22536;-69
2021/07/29 12:25:43;;;;;;;;;;;;;;;32.25;35.93;99360.39;1781926;78;20155;-69
2021/07/29 12:28:11;;;;;;;;;;;;;;;32.25;34.56;99361.20;1790929;78;20154;-70
2021/07/29 12:30:43;;;;;;;;;;;;;;;32.26;33.85;99357.98;1790210;78;20515;-72
2021/07/29 12:33:15;;;;;;;;;;;;;;;32.24;34.59;99356.88;1782814;78;20404;-71
2021/07/29 12:35:43;;;;;;;;;;;;;;;32.23;34.89;99356.59;1782413;78;21052;-74
2021/07/29 12:38:10;;;;;;;;;;;;;;;32.23;35.06;99359.81;1778758;78;20983;-72
2021/07/29 12:40:37;;;;;;;;;;;;;;;32.20;35.98;99358.39;1788264;78;20117;-69
2021/07/29 12:43:18;;;;;;;;;;;;;;;32.29;36.32;99352.92;1784194;78;20151;-69
2021/07/29 12:45:46;;;;;;;;;;;;;;;32.44;36.36;99346.42;1791983;78;20430;-69
2021/07/29 12:48:14;;;;;;;;;;;;;;;32.64;35.78;99341.08;1787046;78;21109;-69
2021/07/29 12:50:41;;;;;;;;;;;;;;;32.83;34.48;99334.36;1756562;80;20116;-67
2021/07/29 12:53:11;;;;;;;;;;;;;;;32.99;34.54;99332.70;1782629;78;20117;-66
2021/07/29 12:55:39;;;;;;;;;;;;;;;33.08;34.16;99327.98;1797050;78;20094;-67
2021/07/29 12:58:07;;;;;;;;;;;;;;;33.09;34.80;99322.87;1786110;78;20078;-69
2021/07/29 13:00:44;;;;;;;;;;;;;;;33.11;35.25;99311.30;1791578;78;21111;-67
2021/07/29 13:03:27;;;;;;;;;;;;;;;33.13;35.26;99307.82;1785720;79;20127;-65
2021/07/29 13:05:50;;;;;;;;;;;;;;;33.11;35.36;99304.56;1780901;79;20145;-69
2021/07/29 13:08:16;;;;;;;;;;;;;;;33.04;35.76;99291.78;1778847;79;20102;-66
2021/07/29 13:10:43;;;;;;;;;;;;;;;32.98;36.31;99291.96;1771901;79;20137;-69
2021/07/29 13:13:12;;;;;;;;;;;;;;;32.92;36.74;99285.69;1764645;79;21114;-65
2021/07/29 13:15:41;;;;;;;;;;;;;;;32.86;37.15;99288.55;1782970;79;20448;-68
2021/07/29 13:18:09;;;;;;;;;;;;;;;32.78;37.87;99289.83;1779517;79;20141;-68
2021/07/29 13:20:46;;;;;;;;;;;;;;;32.69;38.82;99283.19;1779682;79;20130;-64
2021/07/29 13:23:17;;;;;;;;;;;;;;;32.60;39.02;99281.97;1765821;80;20496;-64
2021/07/29 13:25:46;;;;;;;;;;;;;;;32.53;39.24;99288.88;1779532;79;21077;-67
2021/07/29 13:28:14;;;;;;;;;;;;;;;32.44;39.69;99291.70;1766230;78;20112;-70
2021/07/29 13:30:41;;;;;;;;;;;;;;;32.34;40.47;99294.27;1779386;78;20128;-68
2021/07/29 13:33:15;;;;;;;;;;;;;;;32.22;40.45;99289.48;1772257;79;20431;-66
2021/07/29 13:35:45;;;;;;;;;;;;;;;32.13;40.78;99297.11;1779388;79;20099;-73
2021/07/29 13:38:12;;;;;;;;;;;;;;;32.10;41.16;99296.25;1766492;79;21143;-69
2021/07/29 13:40:39;;;;;;;;;;;;;;;32.08;41.50;99297.02;1771899;79;20156;-74
2021/07/29 13:43:06;;;;;;;;;;;;;;;32.06;41.69;99298.61;1775743;79;20090;-77
2021/07/29 13:45:34;;;;;;;;;;;;;;;32.03;42.05;99307.18;1770897;79;20089;-76
2021/07/29 13:48:01;;;;;;;;;;;;;;;32.01;41.71;99301.22;1769037;79;20153;-73
2021/07/29 13:50:32;;;;;;;;;;;;;;;31.96;41.54;99300.34;1781088;79;21117;-71
2021/07/29 13:52:59;;;;;;;;;;;;;;;31.91;41.77;99297.55;1776505;79;20087;-80
2021/07/29 13:55:26;;;;;;;;;;;;;;;31.87;42.60;99291.84;1778143;79;20066;-72
2021/07/29 13:57:53;;;;;;;;;;;;;;;31.87;42.38;99293.71;1779120;79;20141;-79
2021/07/29 14:00:20;;;;;;;;;;;;;;;31.91;42.40;99301.59;1776185;79;20311;-77
2021/07/29 14:02:50;;;;;;;;;;;;;;;31.95;42.53;99293.31;1784297;79;21119;-67
2021/07/29 14:05:20;;;;;;;;;;;;;;;31.97;42.90;99287.98;1799672;79;20444;-66
2021/07/29 14:07:47;;;;;;;;;;;;;;;32.02;42.64;99287.22;1789707;80;20115;-68
2021/07/29 14:10:14;;;;;;;;;;;;;;;32.05;42.43;99288.08;1780040;80;20857;-70
2021/07/29 14:12:44;;;;;;;;;;;;;;;32.08;42.04;99278.17;1779684;80;20145;-68
2021/07/29 14:15:12;;;;;;;;;;;;;;;32.09;42.22;99271.19;1777332;80;20130;-69
2021/07/29 14:20:27;;;;;;;;;;;;;;;32.12;42.17;99260.46;1787357;78;20153;-71
2021/07/29 14:25:30;;;;;;;;;;;;;;;32.09;42.70;99249.64;1796205;80;20114;-70
2021/07/29 14:27:58;;;;;;;;;;;;;;;32.11;43.89;99248.05;1796111;80;21089;-69
2021/07/29 14:30:25;;;;;;;;;;;;;;;32.02;45.15;99236.87;1795944;80;20110;-69
2021/07/29 14:32:54;;;;;;;;;;;;;;;31.84;45.70;99223.66;1795995;80;20082;-70
2021/07/29 14:35:21;;;;;;;;;;;;;;;31.66;46.04;99216.58;1795415;79;20146;-70
2021/07/29 14:37:48;;;;;;;;;;;;;;;31.52;46.37;99201.01;1796157;80;20094;-71
2021/07/29 14:40:15;;;;;;;;;;;;;;;31.30;47.02;99188.23;1796102;80;21738;-70
2021/07/29 14:42:42;;;;;;;;;;;;;;;31.12;47.50;99186.57;1794707;80;20114;-69
